createdAt,value
2023-05-17T00:04:35.045Z,83.20
2023-05-17T00:09:38.892Z,84.00
2023-05-17T00:14:42.674Z,84.60
2023-05-17T00:19:47.771Z,85.30
2023-05-17T00:24:51.534Z,86.20
2023-05-17T00:29:55.345Z,87.00
2023-05-17T00:35:00.457Z,88.00
2023-05-17T00:40:05.897Z,88.70
2023-05-17T00:45:10.761Z,89.50
2023-05-17T00:50:16.039Z,90.20
2023-05-17T00:55:20.197Z,90.70
2023-05-17T01:00:27.008Z,91.20
2023-05-17T01:05:31.728Z,91.70
2023-05-17T01:10:42.404Z,92.10
2023-05-17T01:15:51.937Z,92.50
2023-05-17T01:21:02.546Z,92.90
2023-05-17T01:26:11.963Z,93.30
2023-05-17T01:31:17.356Z,93.60
2023-05-17T01:36:20.651Z,93.90
2023-05-17T01:41:30.630Z,94.20
2023-05-17T01:46:40.939Z,94.50
2023-05-17T01:51:49.590Z,94.80
2023-05-17T01:56:58.685Z,95.00
2023-05-17T02:02:08.750Z,95.30
2023-05-17T02:07:12.531Z,95.50
2023-05-17T02:12:15.984Z,95.90
2023-05-17T02:17:20.691Z,96.20
2023-05-17T02:22:23.951Z,96.30
2023-05-17T02:27:27.242Z,96.50
2023-05-17T02:32:32.203Z,96.70
2023-05-17T02:37:35.996Z,96.90
2023-05-17T02:42:39.608Z,97.20
2023-05-17T02:47:44.899Z,97.50
2023-05-17T02:52:48.646Z,97.80
2023-05-17T02:57:52.345Z,98.10
2023-05-17T03:02:59.175Z,98.40
2023-05-17T03:08:02.974Z,98.70
2023-05-17T03:13:07.427Z,99.00
2023-05-17T03:18:16.030Z,99.30
2023-05-17T03:23:20.482Z,99.70
2023-05-17T03:28:33.504Z,99.90
2023-05-17T03:33:38.774Z,99.90
2023-05-17T03:38:42.571Z,99.90
2023-05-17T03:43:46.209Z,99.90
2023-05-17T03:48:52.926Z,99.90
2023-05-17T03:54:00.428Z,99.90
2023-05-17T03:59:05.749Z,99.90
2023-05-17T04:04:11.266Z,99.90
2023-05-17T04:09:15.631Z,99.90
2023-05-17T04:14:19.831Z,99.90
2023-05-17T04:19:25.292Z,99.90
2023-05-17T04:24:29.194Z,99.90
2023-05-17T04:29:33.962Z,99.90
2023-05-17T04:34:38.747Z,99.90
2023-05-17T04:39:42.615Z,99.90
2023-05-17T04:44:46.889Z,99.90
2023-05-17T04:49:52.149Z,99.90
2023-05-17T04:54:55.554Z,99.60
2023-05-17T04:59:59.812Z,98.80
2023-05-17T05:05:06.802Z,97.50
2023-05-17T05:10:11.944Z,94.20
2023-05-17T05:15:16.523Z,94.10
2023-05-17T05:20:28.319Z,94.90
2023-05-17T05:25:33.309Z,95.60
2023-05-17T05:30:36.893Z,96.30
2023-05-17T05:35:42.566Z,96.40
2023-05-17T05:40:48.093Z,96.10
2023-05-17T05:45:51.328Z,96.70
2023-05-17T05:50:56.719Z,96.00
2023-05-17T05:56:00.086Z,95.20
2023-05-17T06:01:06.111Z,95.30
2023-05-17T06:06:11.832Z,95.50
2023-05-17T06:11:15.573Z,95.80
2023-05-17T06:16:19.245Z,96.00
2023-05-17T06:21:24.308Z,96.20
2023-05-17T06:26:29.153Z,96.30
2023-05-17T06:31:34.492Z,96.30
2023-05-17T06:36:40.781Z,96.30
2023-05-17T06:41:44.724Z,96.30
2023-05-17T06:46:53.738Z,95.80
2023-05-17T06:52:03.668Z,94.80
2023-05-17T06:57:07.650Z,93.80
2023-05-17T07:02:11.408Z,92.80
2023-05-17T07:07:16.460Z,92.00
2023-05-17T07:12:20.090Z,91.30
2023-05-17T07:17:23.809Z,90.30
2023-05-17T07:22:28.876Z,89.80
2023-05-17T07:27:32.529Z,86.50
2023-05-17T07:32:36.255Z,85.60
2023-05-17T07:37:40.968Z,84.00
2023-05-17T07:42:44.502Z,82.20
2023-05-17T07:47:48.063Z,81.40
2023-05-17T07:52:55.838Z,78.90
2023-05-17T07:57:59.460Z,77.60
2023-05-17T08:03:03.162Z,76.70
2023-05-17T08:08:07.886Z,76.50
2023-05-17T08:13:11.108Z,75.30
2023-05-17T08:18:14.458Z,72.80
2023-05-17T08:23:19.101Z,72.10
2023-05-17T08:28:22.340Z,72.50
2023-05-17T08:33:26.335Z,71.90
2023-05-17T08:38:31.531Z,70.70
2023-05-17T08:43:35.862Z,70.70
2023-05-17T08:48:42.131Z,70.90
2023-05-17T08:53:47.636Z,71.60
2023-05-17T08:58:57.909Z,70.40
2023-05-17T09:04:02.238Z,68.90
2023-05-17T09:09:08.832Z,68.30
2023-05-17T09:14:12.062Z,67.90
2023-05-17T09:19:18.076Z,67.40
2023-05-17T09:24:29.295Z,67.80
2023-05-17T09:29:33.524Z,66.50
2023-05-17T09:34:40.943Z,65.50
2023-05-17T09:39:47.349Z,65.10
2023-05-17T09:44:53.423Z,66.00
2023-05-17T09:49:58.144Z,64.90
2023-05-17T09:55:02.998Z,65.30
2023-05-17T10:00:12.421Z,64.40
2023-05-17T10:05:18.857Z,63.50
2023-05-17T10:10:23.784Z,63.70
2023-05-17T10:15:28.779Z,64.30
2023-05-17T10:20:32.394Z,64.30
2023-05-17T10:25:37.466Z,63.40
2023-05-17T10:30:41.847Z,61.40
2023-05-17T10:35:46.295Z,61.30
2023-05-17T10:40:53.318Z,61.40
2023-05-17T10:45:56.704Z,60.70
2023-05-17T10:51:07.938Z,60.80
2023-05-17T10:56:12.556Z,59.80
2023-05-17T11:01:54.332Z,60.20
2023-05-17T11:07:25.028Z,60.10
2023-05-17T11:12:38.420Z,59.70
2023-05-17T11:17:51.720Z,59.00
2023-05-17T11:22:59.395Z,58.90
2023-05-17T11:28:09.100Z,59.00
2023-05-17T11:33:21.170Z,58.10
2023-05-17T11:38:34.525Z,58.10
2023-05-17T11:43:46.254Z,58.20
2023-05-17T11:48:51.438Z,58.10
2023-05-17T11:53:56.162Z,58.00
2023-05-17T11:59:01.145Z,57.70
2023-05-17T12:04:04.451Z,57.60
2023-05-17T12:09:11.198Z,57.10
2023-05-17T12:14:18.571Z,56.40
2023-05-17T12:19:23.538Z,56.50
2023-05-17T12:24:38.604Z,56.80
2023-05-17T12:29:43.286Z,56.50
2023-05-17T12:34:48.035Z,56.60
2023-05-17T12:39:51.571Z,56.40
2023-05-17T12:44:56.253Z,56.40
2023-05-17T12:50:03.346Z,56.80
2023-05-17T12:55:07.485Z,56.70
2023-05-17T13:00:13.775Z,56.20
2023-05-17T13:05:18.648Z,55.80
2023-05-17T13:10:23.586Z,56.20
2023-05-17T13:15:32.968Z,55.50
2023-05-17T13:20:36.311Z,55.20
2023-05-17T13:25:39.690Z,55.30
2023-05-17T13:30:49.982Z,55.60
2023-05-17T13:35:53.318Z,55.80
2023-05-17T13:40:56.631Z,56.00
2023-05-17T13:46:01.368Z,55.60
2023-05-17T13:51:05.097Z,55.50
2023-05-17T13:56:08.750Z,55.30
2023-05-17T14:01:13.353Z,55.20
2023-05-17T14:06:17.000Z,54.70
2023-05-17T14:11:21.236Z,54.50
2023-05-17T14:16:26.057Z,54.60
2023-05-17T14:21:29.392Z,55.00
2023-05-17T14:26:32.695Z,54.40
2023-05-17T14:31:37.616Z,53.90
2023-05-17T14:36:40.859Z,53.40
2023-05-17T14:41:45.138Z,53.40
2023-05-17T14:46:49.897Z,53.50
2023-05-17T14:51:53.202Z,53.60
2023-05-17T14:56:56.626Z,53.50
2023-05-17T15:02:01.481Z,53.20
2023-05-17T15:07:05.004Z,53.00
2023-05-17T15:12:10.822Z,52.80
2023-05-17T15:17:17.010Z,52.90
2023-05-17T15:22:20.321Z,52.40
2023-05-17T15:27:23.524Z,53.00
2023-05-17T15:32:28.246Z,52.60
2023-05-17T15:37:31.614Z,52.80
2023-05-17T15:42:34.894Z,53.00
2023-05-17T15:47:43.582Z,52.20
2023-05-17T15:52:48.798Z,51.90
2023-05-17T15:57:52.097Z,51.20
2023-05-17T16:02:56.759Z,50.90
2023-05-17T16:08:00.055Z,51.10
2023-05-17T16:13:03.839Z,51.70
2023-05-17T16:18:10.799Z,52.20
2023-05-17T16:23:14.207Z,51.90
2023-05-17T16:28:19.375Z,51.90
2023-05-17T16:33:24.128Z,50.80
2023-05-17T16:38:27.559Z,49.80
2023-05-17T16:43:30.979Z,49.70
2023-05-17T16:48:35.806Z,49.00
2023-05-17T16:53:39.150Z,48.70
2023-05-17T16:58:42.799Z,48.50
2023-05-17T17:03:47.800Z,48.80
2023-05-17T17:08:51.112Z,48.70
2023-05-17T17:13:54.613Z,48.40
2023-05-17T17:18:59.310Z,48.70
2023-05-17T17:24:03.128Z,48.40
2023-05-17T17:29:08.200Z,48.10
2023-05-17T17:34:13.011Z,48.20
2023-05-17T17:39:17.277Z,47.90
2023-05-17T17:44:21.037Z,48.00
2023-05-17T17:49:25.942Z,48.00
2023-05-17T17:54:29.880Z,48.10
2023-05-17T17:59:33.505Z,48.40
2023-05-17T18:04:39.458Z,48.60
2023-05-17T18:09:43.430Z,48.80
2023-05-17T18:14:47.195Z,49.10
2023-05-17T18:19:53.178Z,49.20
2023-05-17T18:24:56.498Z,49.60
2023-05-17T18:30:00.038Z,50.10
2023-05-17T18:35:05.474Z,50.90
2023-05-17T18:40:10.419Z,51.60
2023-05-17T18:45:14.184Z,52.10
2023-05-17T18:50:19.298Z,52.70
2023-05-17T18:55:22.672Z,53.30
2023-05-17T19:00:26.404Z,53.90
2023-05-17T19:05:31.163Z,54.60
2023-05-17T19:10:34.493Z,55.40
2023-05-17T19:15:37.846Z,56.20
2023-05-17T19:20:42.482Z,57.00
2023-05-17T19:25:45.715Z,57.70
2023-05-17T19:30:49.100Z,58.50
2023-05-17T19:35:53.686Z,59.10
2023-05-17T19:40:56.973Z,59.80
2023-05-17T19:46:00.411Z,60.40
2023-05-17T19:51:05.836Z,61.00
2023-05-17T19:56:10.281Z,61.80
2023-05-17T20:01:13.938Z,62.00
2023-05-17T20:06:19.341Z,62.40
2023-05-17T20:11:23.134Z,62.80
2023-05-17T20:16:28.379Z,63.20
2023-05-17T20:21:33.703Z,63.70
2023-05-17T20:26:37.904Z,64.10
2023-05-17T20:31:41.710Z,64.60
2023-05-17T20:36:46.768Z,65.00
2023-05-17T20:41:50.406Z,65.40
2023-05-17T20:46:55.839Z,65.70
2023-05-17T20:52:04.275Z,65.90
2023-05-17T20:57:07.566Z,66.00
2023-05-17T21:02:10.941Z,66.00
2023-05-17T21:07:17.429Z,66.10
2023-05-17T21:12:23.180Z,66.10
2023-05-17T21:17:27.570Z,66.10
2023-05-17T21:22:32.508Z,66.20
2023-05-17T21:27:36.342Z,66.40
2023-05-17T21:32:40.034Z,66.60
2023-05-17T21:37:45.139Z,66.80
2023-05-17T21:42:49.228Z,66.90
2023-05-17T21:47:53.051Z,67.10
2023-05-17T21:52:58.132Z,67.30
2023-05-17T21:58:01.700Z,67.50
2023-05-17T22:03:05.678Z,67.70
2023-05-17T22:08:10.406Z,67.80
2023-05-17T22:13:16.172Z,68.20
2023-05-17T22:18:20.304Z,68.70
2023-05-17T22:23:25.430Z,69.00
2023-05-17T22:28:29.383Z,69.50
2023-05-17T22:33:33.070Z,69.70
2023-05-17T22:38:38.043Z,70.00
2023-05-17T22:43:41.713Z,70.20
2023-05-17T22:48:45.272Z,70.50
2023-05-17T22:53:50.355Z,70.60
2023-05-17T22:58:53.893Z,70.90
2023-05-17T23:03:57.526Z,71.20
2023-05-17T23:09:05.498Z,71.70
2023-05-17T23:14:09.075Z,72.30
2023-05-17T23:19:14.005Z,73.00
2023-05-17T23:24:19.057Z,73.70
2023-05-17T23:29:22.918Z,74.10
2023-05-17T23:34:26.724Z,74.60
2023-05-17T23:39:31.886Z,74.90
2023-05-17T23:44:36.292Z,75.10
2023-05-17T23:49:40.247Z,75.30
2023-05-17T23:54:45.183Z,75.50
2023-05-17T23:59:48.934Z,75.70
